Time;durP1;ratioP1;P1;durP2;ratioP2;P2;SDS_P1;SDS_P2;PMS_P1;PMS_P2;Temp;Humidity;BMP_temperature;BMP_pressure;BME280_temperature;BME280_humidity;BME280_pressure;Samples;Min_cycle;Max_cycle;Signal;HPM_P1;HPM_P2
2023/04/11 00:00:54;;;;;;;10.13;6.55;;;10.20;90.20;;;;;;5080797;28;20028;-45
2023/04/11 00:03:23;;;;;;;12.93;7.22;;;10.10;89.90;;;;;;5095006;28;20020;-45
2023/04/11 00:05:50;;;;;;;12.40;7.47;;;10.10;90.00;;;;;;5095000;28;20131;-44
2023/04/11 00:08:17;;;;;;;10.73;7.15;;;10.10;90.00;;;;;;5094023;28;20060;-45
2023/04/11 00:10:42;;;;;;;12.85;7.25;;;10.00;90.10;;;;;;5057924;28;20059;-48
2023/04/11 00:13:09;;;;;;;12.35;7.40;;;10.00;90.20;;;;;;5074950;28;20020;-48
2023/04/11 00:15:36;;;;;;;9.35;6.20;;;10.00;90.30;;;;;;5074419;28;20078;-51
2023/04/11 00:18:03;;;;;;;13.63;6.43;;;10.00;90.40;;;;;;5075260;28;20103;-48
2023/04/11 00:20:30;;;;;;;10.38;6.95;;;10.00;90.60;;;;;;5074706;28;20021;-48
2023/04/11 00:22:57;;;;;;;11.32;6.88;;;10.00;90.60;;;;;;5082458;28;20070;-44
2023/04/11 00:25:24;;;;;;;13.27;6.93;;;10.00;90.60;;;;;;5090081;28;20028;-46
2023/04/11 00:27:51;;;;;;;8.63;6.75;;;10.10;90.70;;;;;;5084376;28;20101;-45
2023/04/11 00:30:18;;;;;;;10.35;7.32;;;10.00;90.60;;;;;;5083391;28;20115;-44
2023/04/11 00:32:45;;;;;;;11.45;7.70;;;10.00;90.60;;;;;;5084282;28;20024;-45
2023/04/11 00:35:12;;;;;;;11.00;7.63;;;9.90;90.50;;;;;;5080144;28;20028;-44
2023/04/11 00:37:42;;;;;;;9.80;6.65;;;9.90;90.50;;;;;;5063566;28;20510;-46
2023/04/11 00:40:11;;;;;;;10.52;6.85;;;9.90;90.70;;;;;;5075796;28;20027;-49
2023/04/11 00:42:38;;;;;;;14.13;7.05;;;9.90;90.60;;;;;;5064897;28;20082;-47
2023/04/11 00:45:04;;;;;;;13.23;7.53;;;9.90;90.70;;;;;;5062695;28;20118;-45
2023/04/11 00:47:32;;;;;;;10.38;7.25;;;9.90;90.80;;;;;;5094103;28;20031;-48
2023/04/11 00:50:02;;;;;;;8.98;6.78;;;9.80;90.90;;;;;;5084116;28;20515;-45
2023/04/11 00:52:30;;;;;;;11.48;7.03;;;9.90;91.10;;;;;;5082761;28;20036;-48
2023/04/11 00:54:59;;;;;;;16.60;6.88;;;9.90;91.00;;;;;;5093950;28;20040;-47
2023/04/11 00:57:25;;;;;;;9.00;6.55;;;9.90;91.10;;;;;;5068400;28;20021;-46
2023/04/11 00:59:52;;;;;;;11.80;7.88;;;9.90;91.20;;;;;;5074582;28;20107;-47
2023/04/11 01:02:19;;;;;;;13.18;7.45;;;9.90;91.10;;;;;;5074488;28;20089;-46
2023/04/11 01:04:46;;;;;;;9.30;7.15;;;9.90;91.20;;;;;;5078041;28;20059;-47
2023/04/11 01:07:15;;;;;;;18.55;8.80;;;9.90;91.30;;;;;;5081651;28;20341;-55
2023/04/11 01:09:45;;;;;;;5.88;2.22;;;9.90;91.30;;;;;;5076640;28;20028;-61
2023/04/11 01:12:14;;;;;;;6.03;1.70;;;9.50;88.70;;;;;;5076156;28;20055;-62
2023/04/11 01:14:41;;;;;;;3.53;1.60;;;9.10;87.90;;;;;;5065835;28;20453;-58
2023/04/11 01:17:11;;;;;;;2.28;0.85;;;8.70;88.40;;;;;;5056109;28;20442;-55
2023/04/11 01:19:39;;;;;;;3.50;1.10;;;8.60;88.80;;;;;;5086017;28;20043;-55
2023/04/11 01:22:10;;;;;;;3.08;1.08;;;8.40;89.10;;;;;;5078518;28;20020;-58
2023/04/11 01:24:35;;;;;;;3.95;1.33;;;8.30;89.70;;;;;;5094413;28;20028;-58
2023/04/11 01:27:02;;;;;;;3.53;1.13;;;8.20;89.90;;;;;;5076282;28;20311;-49
2023/04/11 01:29:28;;;;;;;7.65;1.58;;;8.00;90.40;;;;;;5085944;28;20093;-58
2023/04/11 01:31:53;;;;;;;5.70;2.47;;;7.90;90.80;;;;;;5079572;28;20028;-58
2023/04/11 01:34:21;;;;;;;3.72;1.02;;;7.90;90.80;;;;;;5093844;28;20028;-60
2023/04/11 01:36:48;;;;;;;2.75;1.00;;;7.90;91.00;;;;;;5091812;28;20024;-60
2023/04/11 01:39:15;;;;;;;4.10;1.08;;;7.80;91.00;;;;;;5088480;28;20028;-58
2023/04/11 01:41:45;;;;;;;3.45;1.08;;;7.80;91.30;;;;;;5088300;28;20057;-58
2023/04/11 01:44:12;;;;;;;2.88;1.10;;;7.80;91.20;;;;;;5090624;28;20315;-60
2023/04/11 01:46:43;;;;;;;3.90;1.02;;;7.80;91.30;;;;;;5091550;28;20032;-56
2023/04/11 01:49:09;;;;;;;1.95;0.80;;;7.80;91.40;;;;;;5060013;28;20404;-54
2023/04/11 01:51:35;;;;;;;5.43;1.27;;;7.80;91.30;;;;;;5055984;28;20107;-57
2023/04/11 01:54:02;;;;;;;3.10;1.20;;;7.80;91.40;;;;;;5089620;28;20028;-50
2023/04/11 01:56:31;;;;;;;6.35;1.38;;;7.80;91.40;;;;;;5075043;28;20076;-53
2023/04/11 01:58:58;;;;;;;1.88;1.02;;;7.70;91.30;;;;;;5078613;28;20024;-50
2023/04/11 02:01:25;;;;;;;8.15;1.80;;;7.80;91.60;;;;;;5064605;28;20123;-50
2023/04/11 02:03:51;;;;;;;6.20;2.65;;;7.80;91.60;;;;;;5078100;28;20032;-52
2023/04/11 02:06:19;;;;;;;7.22;2.40;;;7.70;91.50;;;;;;5055379;28;20413;-55
2023/04/11 02:08:46;;;;;;;6.57;3.40;;;7.70;91.50;;;;;;5083536;28;20411;-49
2023/04/11 02:11:13;;;;;;;5.05;2.20;;;7.80;91.50;;;;;;5072845;28;20056;-52
2023/04/11 02:13:39;;;;;;;5.63;2.25;;;7.70;91.40;;;;;;5073837;28;20036;-49
2023/04/11 02:16:10;;;;;;;3.00;1.30;;;7.70;91.40;;;;;;5083953;28;20020;-48
2023/04/11 02:18:37;;;;;;;5.60;1.13;;;7.70;91.40;;;;;;5087932;28;20024;-49
2023/04/11 02:21:07;;;;;;;4.85;1.40;;;7.70;91.20;;;;;;5055554;28;20028;-49
2023/04/11 02:23:34;;;;;;;7.55;1.50;;;7.70;91.30;;;;;;5063485;28;20032;-63
2023/04/11 02:26:00;;;;;;;2.67;1.20;;;7.70;91.30;;;;;;5089897;28;20039;-58
2023/04/11 02:28:28;;;;;;;4.65;1.20;;;7.70;91.40;;;;;;5073214;28;20055;-57
2023/04/11 02:30:55;;;;;;;4.70;1.08;;;7.70;91.40;;;;;;5080389;28;20074;-58
2023/04/11 02:33:22;;;;;;;4.47;1.45;;;7.60;91.40;;;;;;5083492;28;20034;-59
2023/04/11 02:35:49;;;;;;;4.68;1.50;;;7.60;91.40;;;;;;5072414;28;20043;-59
2023/04/11 02:38:16;;;;;;;2.53;1.20;;;7.60;91.50;;;;;;5079812;28;20452;-54
2023/04/11 02:40:43;;;;;;;5.40;1.23;;;7.70;91.50;;;;;;5092918;28;20043;-52
2023/04/11 02:43:10;;;;;;;5.90;1.50;;;7.60;91.50;;;;;;5076810;28;20033;-50
2023/04/11 02:45:37;;;;;;;5.03;2.45;;;7.70;91.70;;;;;;5055277;28;20028;-52
2023/04/11 02:48:04;;;;;;;6.25;2.67;;;7.70;91.80;;;;;;5076588;28;20027;-49
2023/04/11 02:50:31;;;;;;;7.85;3.40;;;7.70;91.90;;;;;;5080794;28;20055;-53
2023/04/11 02:52:58;;;;;;;8.80;3.47;;;7.70;91.90;;;;;;5091929;28;20464;-50
2023/04/11 02:55:24;;;;;;;9.57;4.40;;;7.80;91.90;;;;;;5073081;28;20034;-55
2023/04/11 02:57:53;;;;;;;7.13;2.83;;;7.70;91.70;;;;;;5075411;28;20107;-49
2023/04/11 03:00:20;;;;;;;7.22;2.17;;;7.70;91.60;;;;;;5091555;28;20065;-53
2023/04/11 03:02:48;;;;;;;7.38;1.85;;;7.70;91.60;;;;;;5074682;28;20043;-53
2023/04/11 03:05:17;;;;;;;5.90;2.10;;;7.70;91.40;;;;;;5074739;28;20039;-49
2023/04/11 03:07:43;;;;;;;4.13;1.63;;;7.70;91.60;;;;;;5087920;28;20066;-52
2023/04/11 03:10:11;;;;;;;3.92;1.85;;;7.60;91.50;;;;;;5079084;28;20031;-52
2023/04/11 03:12:38;;;;;;;6.22;1.83;;;7.60;91.40;;;;;;5079072;28;20028;-49
2023/04/11 03:15:06;;;;;;;8.10;2.42;;;7.50;91.30;;;;;;5096169;28;20020;-52
2023/04/11 03:17:33;;;;;;;5.85;2.35;;;7.50;91.30;;;;;;5062277;28;20032;-50
2023/04/11 03:20:00;;;;;;;4.68;1.70;;;7.50;91.50;;;;;;5091603;28;20019;-50
2023/04/11 03:22:27;;;;;;;7.18;2.15;;;7.40;91.50;;;;;;5058648;28;20036;-48
2023/04/11 03:24:54;;;;;;;9.32;2.05;;;7.40;91.60;;;;;;5079600;28;20020;-51
2023/04/11 03:27:20;;;;;;;10.70;2.92;;;7.40;91.70;;;;;;5073300;28;20120;-49
2023/04/11 03:29:47;;;;;;;8.52;2.22;;;7.40;91.60;;;;;;5091505;28;20738;-52
2023/04/11 03:32:12;;;;;;;10.63;2.38;;;7.40;91.60;;;;;;5092282;28;20107;-49
2023/04/11 03:34:46;;;;;;;9.00;2.20;;;7.40;91.60;;;;;;5096711;28;20161;-50
2023/04/11 03:37:12;;;;;;;10.88;3.88;;;7.40;91.50;;;;;;5096089;28;20079;-47
2023/04/11 03:39:41;;;;;;;8.25;2.22;;;7.30;91.40;;;;;;5093350;28;20070;-47
2023/04/11 03:42:09;;;;;;;12.55;2.35;;;7.30;91.60;;;;;;5096320;28;20404;-49
2023/04/11 03:44:36;;;;;;;8.50;2.22;;;7.40;91.60;;;;;;5096431;28;20103;-51
2023/04/11 03:47:02;;;;;;;8.70;1.90;;;7.30;91.70;;;;;;5091377;28;20471;-49
2023/04/11 03:49:28;;;;;;;10.10;2.20;;;7.30;91.60;;;;;;5095233;28;20544;-47
2023/04/11 03:51:54;;;;;;;7.15;1.90;;;7.30;91.50;;;;;;5076933;28;20063;-49
2023/04/11 03:54:21;;;;;;;9.82;2.83;;;7.30;91.50;;;;;;5077302;28;20111;-48
2023/04/11 03:56:50;;;;;;;7.43;1.77;;;7.20;91.50;;;;;;5090572;28;20459;-51
2023/04/11 03:59:17;;;;;;;8.45;2.60;;;7.10;91.40;;;;;;5088881;28;20449;-46
2023/04/11 04:01:44;;;;;;;7.97;1.95;;;7.10;91.50;;;;;;5091887;28;20062;-48
2023/04/11 04:04:10;;;;;;;8.98;1.98;;;7.00;91.50;;;;;;5088683;28;20021;-47
2023/04/11 04:06:40;;;;;;;8.48;2.42;;;7.00;91.70;;;;;;5092602;28;20039;-47
2023/04/11 04:09:07;;;;;;;11.15;2.70;;;7.00;91.80;;;;;;5090330;28;20315;-47
2023/04/11 04:11:36;;;;;;;7.38;2.22;;;7.00;91.90;;;;;;5070735;28;20651;-48
2023/04/11 04:14:03;;;;;;;8.07;1.95;;;7.00;92.00;;;;;;5091853;28;20052;-58
2023/04/11 04:16:34;;;;;;;5.10;2.22;;;7.00;91.90;;;;;;5084728;28;20024;-60
2023/04/11 04:19:01;;;;;;;6.03;2.22;;;7.10;92.10;;;;;;5092235;28;20034;-56
2023/04/11 04:21:31;;;;;;;15.30;5.63;;;7.10;92.20;;;;;;5085045;28;20035;-56
2023/04/11 04:24:02;;;;;;;;;;;7.20;92.20;;;;;;5082359;28;20021;-57
2023/04/11 04:26:30;;;;;;;5.82;2.03;;;7.20;92.40;;;;;;5074441;28;20246;-57
2023/04/11 04:29:03;;;;;;;7.45;2.10;;;7.30;92.70;;;;;;5084845;28;20059;-54
2023/04/11 04:31:32;;;;;;;7.70;2.63;;;7.40;92.70;;;;;;5080547;28;20028;-50
2023/04/11 04:34:10;;;;;;;10.03;1.93;;;7.40;92.50;;;;;;5064899;28;20039;-50
2023/04/11 04:36:48;;;;;;;5.22;1.88;;;7.40;92.40;;;;;;5088530;28;21071;-49
2023/04/11 04:39:18;;;;;;;7.18;1.80;;;7.40;92.20;;;;;;5079502;28;20024;-51
2023/04/11 04:41:56;;;;;;;5.78;1.73;;;7.40;92.30;;;;;;5061402;28;20476;-51
2023/04/11 04:44:24;;;;;;;5.25;2.60;;;7.40;92.20;;;;;;5079493;28;20111;-53
2023/04/11 04:46:54;;;;;;;8.75;2.50;;;7.30;92.10;;;;;;5082469;28;20111;-49
2023/04/11 04:49:20;;;;;;;8.85;1.98;;;7.30;92.10;;;;;;5083650;28;20050;-51
2023/04/11 04:51:47;;;;;;;6.75;1.60;;;7.30;92.10;;;;;;5056098;28;20033;-49
2023/04/11 04:54:14;;;;;;;7.05;1.80;;;7.20;92.10;;;;;;5084900;28;20032;-53
2023/04/11 04:56:40;;;;;;;8.07;1.75;;;7.20;92.30;;;;;;5076691;28;20031;-50
2023/04/11 04:59:13;;;;;;;4.28;1.40;;;7.20;92.30;;;;;;5056723;28;20350;-50
2023/04/11 05:01:40;;;;;;;3.67;1.52;;;7.20;92.40;;;;;;5064558;28;20029;-51
2023/04/11 05:04:05;;;;;;;4.65;1.60;;;7.20;92.30;;;;;;5074500;28;20029;-51
2023/04/11 05:06:33;;;;;;;3.45;1.70;;;7.20;92.50;;;;;;5084643;28;20099;-50
2023/04/11 05:09:01;;;;;;;4.20;1.67;;;7.20;92.50;;;;;;5080763;28;20032;-51
2023/04/11 05:11:28;;;;;;;7.55;1.80;;;7.30;92.50;;;;;;5076981;28;20118;-50
2023/04/11 05:13:55;;;;;;;4.55;1.45;;;7.30;92.50;;;;;;5075217;28;20024;-50
2023/04/11 05:16:22;;;;;;;3.03;1.40;;;7.30;92.50;;;;;;5080348;28;20035;-49
2023/04/11 05:18:48;;;;;;;5.00;1.55;;;7.30;92.50;;;;;;5067002;28;20105;-54
2023/04/11 05:21:15;;;;;;;5.00;1.40;;;7.30;92.50;;;;;;5082252;28;20399;-54
2023/04/11 05:23:42;;;;;;;8.05;1.40;;;7.30;92.60;;;;;;5082871;28;20016;-55
2023/04/11 05:26:10;;;;;;;5.88;1.52;;;7.30;92.60;;;;;;5090629;28;20059;-58
2023/04/11 05:28:37;;;;;;;3.70;2.08;;;7.30;92.60;;;;;;5094075;28;20383;-53
2023/04/11 05:31:03;;;;;;;6.85;2.20;;;7.30;92.80;;;;;;5084703;28;20112;-54
2023/04/11 05:33:29;;;;;;;6.95;1.95;;;7.30;92.80;;;;;;5075992;28;20103;-50
2023/04/11 05:35:56;;;;;;;5.03;2.05;;;7.30;92.80;;;;;;5066165;28;20028;-52
2023/04/11 05:38:23;;;;;;;5.53;2.22;;;7.30;92.70;;;;;;5074496;28;20032;-49
2023/04/11 05:40:51;;;;;;;7.00;2.95;;;7.40;92.90;;;;;;5074737;28;20028;-53
2023/04/11 05:43:18;;;;;;;5.32;2.30;;;7.40;92.90;;;;;;5083513;28;20046;-53
2023/04/11 05:45:48;;;;;;;6.63;2.10;;;7.40;93.00;;;;;;5075902;28;20055;-50
2023/04/11 05:48:22;;;;;;;4.28;2.22;;;7.50;92.80;;;;;;5064044;28;20020;-48
2023/04/11 05:50:52;;;;;;;3.88;2.08;;;7.50;92.80;;;;;;5090123;28;20613;-48
2023/04/11 05:53:24;;;;;;;4.93;2.28;;;7.50;92.70;;;;;;5067093;28;20059;-49
2023/04/11 05:55:51;;;;;;;4.30;2.30;;;7.50;92.60;;;;;;5081532;28;20031;-48
2023/04/11 05:58:20;;;;;;;5.80;2.90;;;7.50;92.50;;;;;;5084010;28;20039;-48
2023/04/11 06:00:48;;;;;;;6.60;3.25;;;7.50;92.50;;;;;;5083646;28;20099;-49
2023/04/11 06:03:15;;;;;;;8.00;3.38;;;7.50;92.60;;;;;;5083903;28;20024;-51
2023/04/11 06:05:42;;;;;;;7.43;3.40;;;7.60;92.60;;;;;;5073780;28;20028;-49
2023/04/11 06:08:10;;;;;;;5.97;3.33;;;7.70;92.60;;;;;;5068515;28;20028;-58
2023/04/11 06:10:36;;;;;;;6.93;3.33;;;7.70;92.70;;;;;;5092901;28;20252;-54
2023/04/11 06:13:05;;;;;;;7.18;3.72;;;7.70;92.50;;;;;;5080376;28;20024;-56
2023/04/11 06:15:33;;;;;;;7.15;3.63;;;7.70;92.60;;;;;;5082028;28;20478;-55
2023/04/11 06:18:00;;;;;;;5.55;3.17;;;7.80;92.70;;;;;;5080803;28;20512;-56
2023/04/11 06:20:27;;;;;;;6.38;3.15;;;7.80;92.70;;;;;;5074252;28;20025;-54
2023/04/11 06:22:58;;;;;;;8.05;3.40;;;7.80;92.80;;;;;;5082224;28;20039;-54
2023/04/11 06:25:24;;;;;;;6.05;2.88;;;7.80;92.80;;;;;;5090133;28;20087;-54
2023/04/11 06:27:54;;;;;;;9.90;3.35;;;7.90;92.80;;;;;;5091957;28;20085;-50
2023/04/11 06:30:22;;;;;;;12.38;3.83;;;7.80;92.60;;;;;;5056150;28;20051;-50
2023/04/11 06:32:47;;;;;;;5.65;2.67;;;7.80;92.40;;;;;;5080332;28;20111;-49
2023/04/11 06:35:13;;;;;;;6.88;2.70;;;7.70;92.50;;;;;;5063958;28;20403;-52
2023/04/11 06:37:41;;;;;;;12.35;2.55;;;7.70;92.20;;;;;;5089124;28;20024;-58
2023/04/11 06:40:11;;;;;;;6.40;2.53;;;7.80;92.40;;;;;;5081672;28;20457;-57
2023/04/11 06:42:39;;;;;;;6.32;2.22;;;7.80;92.50;;;;;;5072771;28;20040;-52
2023/04/11 06:45:08;;;;;;;5.80;3.15;;;7.70;92.00;;;;;;5072096;28;20350;-50
2023/04/11 06:47:37;;;;;;;3.80;1.67;;;7.90;92.70;;;;;;5089391;28;20047;-50
2023/04/11 06:50:05;;;;;;;5.28;2.25;;;7.90;92.20;;;;;;5083458;28;20074;-50
2023/04/11 06:52:31;;;;;;;5.57;1.88;;;7.90;92.10;;;;;;5065451;28;20032;-52
2023/04/11 06:54:58;;;;;;;5.03;2.00;;;8.00;92.00;;;;;;5088270;28;20021;-50
2023/04/11 06:57:24;;;;;;;5.38;2.45;;;8.30;91.80;;;;;;5086743;28;20035;-53
2023/04/11 06:59:52;;;;;;;5.97;2.03;;;8.40;91.50;;;;;;5081564;28;20476;-52
2023/04/11 07:02:20;;;;;;;4.22;1.98;;;8.50;91.20;;;;;;5075674;28;20373;-51
2023/04/11 07:04:47;;;;;;;11.93;2.90;;;8.50;90.90;;;;;;5066873;28;20035;-49
2023/04/11 07:07:14;;;;;;;13.68;3.35;;;8.60;90.80;;;;;;5089226;28;20423;-48
2023/04/11 07:09:42;;;;;;;8.07;3.42;;;8.60;90.50;;;;;;5087392;28;20020;-49
2023/04/11 07:12:11;;;;;;;6.85;2.75;;;8.60;90.60;;;;;;5073389;28;20066;-45
2023/04/11 07:14:38;;;;;;;4.57;2.40;;;8.60;90.00;;;;;;5086650;28;20097;-49
2023/04/11 07:17:08;;;;;;;9.02;2.72;;;8.70;90.60;;;;;;5084856;28;20361;-47
2023/04/11 07:19:34;;;;;;;7.18;2.90;;;8.60;90.00;;;;;;5088256;28;20046;-50
2023/04/11 07:22:01;;;;;;;9.15;4.25;;;8.50;90.10;;;;;;5084029;28;20423;-56
2023/04/11 07:24:29;;;;;;;6.53;2.67;;;8.60;90.10;;;;;;5080910;28;20033;-59
2023/04/11 07:27:00;;;;;;;9.52;2.70;;;8.50;90.10;;;;;;5075970;28;20016;-59
2023/04/11 07:29:29;;;;;;;5.38;2.17;;;8.40;90.00;;;;;;5050119;28;20038;-58
2023/04/11 07:31:56;;;;;;;4.43;1.33;;;8.30;90.10;;;;;;5084312;28;20028;-60
2023/04/11 07:34:23;;;;;;;3.03;1.20;;;8.10;89.60;;;;;;5054157;28;20038;-59
2023/04/11 07:36:56;;;;;;;4.30;1.50;;;7.90;90.00;;;;;;5069101;28;20021;-55
2023/04/11 07:39:23;;;;;;;3.78;1.45;;;7.90;90.00;;;;;;5090568;28;20093;-53
2023/04/11 07:41:50;;;;;;;6.68;1.63;;;7.80;90.60;;;;;;5089380;28;20036;-50
2023/04/11 07:44:17;;;;;;;4.30;1.58;;;7.90;91.00;;;;;;5091204;28;20034;-51
2023/04/11 07:46:44;;;;;;;3.50;1.77;;;7.90;90.70;;;;;;5091628;28;20028;-49
2023/04/11 07:49:11;;;;;;;4.18;1.60;;;8.00;91.00;;;;;;5087833;28;20103;-49
2023/04/11 07:51:38;;;;;;;5.20;1.50;;;8.00;90.50;;;;;;5089729;28;20104;-48
2023/04/11 07:54:05;;;;;;;5.63;1.83;;;8.00;90.20;;;;;;5075202;28;20024;-51
2023/04/11 07:56:31;;;;;;;7.38;1.88;;;8.20;90.60;;;;;;5056681;28;20029;-52
2023/04/11 07:58:57;;;;;;;5.82;1.30;;;8.20;90.30;;;;;;5089647;28;20028;-48
2023/04/11 08:01:25;;;;;;;4.72;0.98;;;8.20;90.30;;;;;;5063789;28;20111;-50
2023/04/11 08:03:53;;;;;;;4.22;0.73;;;8.20;90.20;;;;;;5089217;28;20020;-49
2023/04/11 08:06:21;;;;;;;4.55;0.80;;;8.10;89.20;;;;;;5085868;28;20107;-58
2023/04/11 08:08:48;;;;;;;5.43;0.98;;;8.00;89.70;;;;;;5074236;28;20028;-52
2023/04/11 08:11:15;;;;;;;8.23;1.23;;;8.10;90.20;;;;;;5091111;28;20040;-52
2023/04/11 08:13:42;;;;;;;3.40;0.70;;;8.10;90.50;;;;;;5081869;28;20035;-51
2023/04/11 08:16:10;;;;;;;3.13;1.33;;;8.30;90.30;;;;;;5091467;28;20326;-52
2023/04/11 08:18:40;;;;;;;3.83;1.40;;;8.40;89.90;;;;;;5094409;28;20123;-52
2023/04/11 08:21:09;;;;;;;6.90;1.50;;;8.30;89.80;;;;;;5081266;28;20080;-55
2023/04/11 08:23:40;;;;;;;4.63;1.40;;;8.20;90.00;;;;;;5087717;28;20107;-52
2023/04/11 08:26:08;;;;;;;3.58;1.30;;;8.30;90.10;;;;;;5091851;28;20521;-56
2023/04/11 08:28:34;;;;;;;4.85;1.40;;;8.20;90.30;;;;;;5079562;28;20094;-56
2023/04/11 08:31:02;;;;;;;10.50;3.13;;;8.10;90.50;;;;;;5093547;28;20034;-54
2023/04/11 08:33:32;;;;;;;3.53;0.90;;;8.00;90.40;;;;;;5094001;28;20055;-56
2023/04/11 08:36:01;;;;;;;6.70;1.40;;;7.90;90.00;;;;;;5074254;28;20032;-57
2023/04/11 08:38:28;;;;;;;4.45;1.40;;;7.80;90.40;;;;;;5091588;28;20472;-59
2023/04/11 08:40:55;;;;;;;3.95;1.13;;;7.90;90.90;;;;;;5082625;28;20024;-58
2023/04/11 08:43:22;;;;;;;5.82;0.95;;;7.70;90.00;;;;;;5088188;28;20035;-57
2023/04/11 08:45:49;;;;;;;5.70;1.00;;;7.70;90.00;;;;;;5064582;28;20031;-56
2023/04/11 08:48:15;;;;;;;4.90;0.95;;;7.60;90.00;;;;;;5072002;28;20115;-57
2023/04/11 08:50:45;;;;;;;3.33;0.75;;;7.50;90.10;;;;;;5087782;28;20103;-55
2023/04/11 08:53:14;;;;;;;5.63;1.23;;;7.60;90.10;;;;;;5083247;28;20028;-55
2023/04/11 08:55:48;;;;;;;7.63;1.52;;;7.40;90.00;;;;;;5081261;28;20028;-56
2023/04/11 08:58:15;;;;;;;4.72;2.53;;;7.60;90.70;;;;;;5056825;28;20020;-55
2023/04/11 09:00:42;;;;;;;4.75;0.88;;;7.70;90.30;;;;;;5087869;28;20331;-58
2023/04/11 09:03:11;;;;;;;4.13;1.13;;;7.70;90.20;;;;;;5083588;28;20039;-56
2023/04/11 09:05:56;;;;;;;4.30;0.80;;;7.60;90.40;;;;;;5085717;28;20689;-56
2023/04/11 09:08:39;;;;;;;5.55;1.17;;;7.80;90.60;;;;;;5075559;28;20410;-55
2023/04/11 09:11:08;;;;;;;7.75;1.27;;;7.90;90.40;;;;;;5083922;28;20048;-54
2023/04/11 09:13:35;;;;;;;5.30;1.58;;;7.90;90.10;;;;;;5085976;28;20031;-52
2023/04/11 09:16:22;;;;;;;5.68;1.25;;;8.10;90.30;;;;;;5079201;28;20036;-53
2023/04/11 09:18:49;;;;;;;10.65;1.50;;;8.30;90.20;;;;;;5079871;28;20369;-54
2023/04/11 09:21:18;;;;;;;4.78;0.95;;;8.40;89.90;;;;;;5085972;28;20024;-52
2023/04/11 09:23:45;;;;;;;5.15;1.45;;;8.60;90.10;;;;;;5070845;28;20115;-55
2023/04/11 09:26:24;;;;;;;3.80;0.77;;;8.50;88.70;;;;;;5075322;28;20025;-54
2023/04/11 09:28:54;;;;;;;4.97;1.15;;;8.50;88.60;;;;;;5079217;28;20342;-54
2023/04/11 09:31:36;;;;;;;4.45;0.70;;;8.50;88.60;;;;;;5079089;28;20182;-51
2023/04/11 09:34:04;;;;;;;3.72;1.00;;;8.60;88.70;;;;;;5085761;28;20489;-48
2023/04/11 09:36:33;;;;;;;4.90;1.15;;;8.80;89.00;;;;;;5061395;28;20032;-48
2023/04/11 09:39:16;;;;;;;3.23;0.70;;;8.90;88.20;;;;;;5079028;28;20028;-50
2023/04/11 09:41:43;;;;;;;4.43;0.65;;;8.80;87.50;;;;;;5077233;28;20278;-46
2023/04/11 09:44:08;;;;;;;3.78;1.15;;;8.80;87.80;;;;;;5061557;28;20028;-47
2023/04/11 09:46:36;;;;;;;2.83;0.80;;;8.90;88.10;;;;;;5073571;28;20032;-47
2023/04/11 09:49:02;;;;;;;4.20;1.00;;;8.80;87.70;;;;;;5082705;28;20029;-46
2023/04/11 09:51:33;;;;;;;3.58;0.80;;;8.70;86.80;;;;;;5084100;28;20369;-47
2023/04/11 09:54:02;;;;;;;4.63;0.95;;;8.80;86.80;;;;;;5053266;28;20062;-46
2023/04/11 09:56:29;;;;;;;7.25;1.00;;;8.80;87.00;;;;;;5080289;28;20028;-46
2023/04/11 09:59:01;;;;;;;3.78;0.80;;;8.80;86.90;;;;;;5092725;28;20060;-45
2023/04/11 10:01:28;;;;;;;4.65;1.60;;;8.90;87.60;;;;;;5076172;28;20036;-46
2023/04/11 10:03:55;;;;;;;4.22;1.15;;;9.10;87.70;;;;;;5069490;28;20069;-47
2023/04/11 10:06:40;;;;;;;2.78;0.85;;;9.20;87.50;;;;;;5069397;28;20512;-45
2023/04/11 10:09:11;;;;;;;2.97;1.13;;;9.40;87.10;;;;;;5087290;28;20046;-48
2023/04/11 10:11:42;;;;;;;7.65;1.52;;;9.50;87.10;;;;;;5072350;28;20109;-44
2023/04/11 10:14:36;;;;;;;5.07;1.50;;;9.60;87.30;;;;;;5091599;28;20040;-50
2023/04/11 10:17:18;;;;;;;5.05;1.25;;;9.50;86.90;;;;;;5076695;28;20050;-45
2023/04/11 10:19:46;;;;;;;5.93;1.63;;;9.30;86.30;;;;;;5090101;28;20106;-59
2023/04/11 10:22:42;;;;;;;5.30;1.20;;;8.90;87.10;;;;;;5073322;28;20107;-56
2023/04/11 10:25:23;;;;;;;4.57;1.00;;;8.10;86.10;;;;;;5091428;28;20031;-53
2023/04/11 10:28:03;;;;;;;4.13;1.20;;;7.80;87.30;;;;;;5090372;28;20024;-54
2023/04/11 10:30:44;;;;;;;4.40;0.98;;;7.70;88.00;;;;;;5089482;28;20089;-50
2023/04/11 10:33:20;;;;;;;4.57;1.40;;;7.90;89.00;;;;;;5072891;28;20049;-48
2023/04/11 10:36:13;;;;;;;13.10;1.70;;;8.40;89.90;;;;;;5088896;28;20054;-48
2023/04/11 10:38:50;;;;;;;6.10;1.90;;;8.90;89.70;;;;;;5084822;28;20036;-47
2023/04/11 10:41:37;;;;;;;10.45;3.33;;;9.20;89.10;;;;;;5080900;28;20525;-47
2023/04/11 10:44:15;;;;;;;12.93;2.75;;;9.40;87.90;;;;;;5089128;28;20472;-47
2023/04/11 10:46:46;;;;;;;7.22;2.65;;;9.40;87.60;;;;;;5075864;28;20074;-46
2023/04/11 10:49:30;;;;;;;13.50;2.92;;;9.10;86.30;;;;;;5090438;28;20023;-46
2023/04/11 10:52:20;;;;;;;11.82;2.63;;;9.00;86.40;;;;;;5091986;28;20032;-48
2023/04/11 10:54:48;;;;;;;13.75;3.83;;;9.00;86.80;;;;;;5088628;28;20114;-49
2023/04/11 10:57:16;;;;;;;12.07;3.05;;;9.30;86.70;;;;;;5092407;28;20442;-45
2023/04/11 10:59:51;;;;;;;7.10;2.53;;;9.50;86.50;;;;;;5068311;28;20028;-45
2023/04/11 11:02:20;;;;;;;9.32;3.58;;;10.00;86.10;;;;;;5102183;28;20107;-45
2023/04/11 11:04:47;;;;;;;13.13;2.83;;;10.20;85.80;;;;;;5079224;28;20040;-45
2023/04/11 11:07:16;;;;;;;10.52;2.70;;;10.40;83.60;;;;;;5092046;28;20115;-48
2023/04/11 11:09:54;;;;;;;10.82;2.83;;;10.60;84.30;;;;;;5086792;28;20028;-49
2023/04/11 11:12:21;;;;;;;11.75;3.50;;;10.80;83.10;;;;;;5066942;28;20048;-45
2023/04/11 11:14:48;;;;;;;8.77;2.85;;;11.30;83.90;;;;;;5082176;28;20043;-46
2023/04/11 11:17:18;;;;;;;13.07;2.47;;;11.70;83.10;;;;;;5050233;28;20568;-44
2023/04/11 11:19:46;;;;;;;12.25;3.03;;;11.60;79.60;;;;;;5089672;28;20042;-46
2023/04/11 11:22:25;;;;;;;9.13;2.90;;;11.70;80.70;;;;;;5079342;28;20028;-43
2023/04/11 11:24:52;;;;;;;14.00;3.77;;;11.90;80.70;;;;;;5090811;28;20028;-44
2023/04/11 11:27:21;;;;;;;12.40;4.43;;;11.20;79.30;;;;;;5089664;28;20317;-46
2023/04/11 11:29:48;;;;;;;13.23;3.75;;;11.00;80.00;;;;;;5087286;28;20029;-47
2023/04/11 11:32:27;;;;;;;16.52;4.88;;;10.70;80.70;;;;;;5083294;28;20016;-45
2023/04/11 11:34:54;;;;;;;13.10;3.15;;;10.40;80.60;;;;;;5068912;28;20713;-47
2023/04/11 11:37:21;;;;;;;9.00;3.22;;;10.20;82.30;;;;;;5091122;28;20457;-47
2023/04/11 11:39:49;;;;;;;8.52;1.98;;;9.90;82.30;;;;;;5089347;28;20039;-46
2023/04/11 11:42:17;;;;;;;5.28;1.70;;;9.60;81.00;;;;;;5092034;28;20035;-44
2023/04/11 11:44:44;;;;;;;7.80;1.52;;;9.30;81.10;;;;;;5091853;28;20373;-43
2023/04/11 11:47:14;;;;;;;4.90;1.67;;;9.30;80.90;;;;;;5091376;28;20027;-44
2023/04/11 11:49:56;;;;;;;;;;;9.10;81.70;;;;;;5066254;28;20040;-43
2023/04/11 11:52:42;;;;;;;13.35;3.13;;;9.00;81.60;;;;;;5092117;28;20248;-45
2023/04/11 11:55:31;;;;;;;11.88;3.03;;;8.80;84.10;;;;;;5076139;28;20458;-45
2023/04/11 11:58:01;;;;;;;15.30;2.93;;;8.70;85.30;;;;;;5094291;28;20084;-46
2023/04/11 12:00:33;;;;;;;12.77;3.10;;;8.60;85.70;;;;;;5074259;28;20285;-49
2023/04/11 12:03:01;;;;;;;13.52;3.60;;;8.60;86.60;;;;;;5097463;28;20035;-46
2023/04/11 12:05:31;;;;;;;13.90;4.63;;;8.70;86.90;;;;;;5095010;28;20103;-49
2023/04/11 12:08:03;;;;;;;14.63;5.20;;;8.90;87.40;;;;;;5075757;28;20023;-45
2023/04/11 12:10:40;;;;;;;10.38;3.67;;;8.90;87.40;;;;;;5093643;28;20040;-50
2023/04/11 12:13:11;;;;;;;9.40;2.42;;;9.00;87.30;;;;;;5094477;28;20046;-44
2023/04/11 12:15:40;;;;;;;13.13;2.72;;;9.10;85.30;;;;;;5088565;28;20510;-45
2023/04/11 12:18:07;;;;;;;14.65;4.45;;;9.50;84.40;;;;;;5095232;28;20020;-45
2023/04/11 12:20:33;;;;;;;14.85;3.67;;;9.80;84.60;;;;;;5081684;28;20059;-46
2023/04/11 12:22:59;;;;;;;19.85;4.50;;;10.10;84.40;;;;;;5073365;28;20503;-45
2023/04/11 12:25:27;;;;;;;11.50;3.63;;;10.50;83.00;;;;;;5085183;28;20039;-45
2023/04/11 12:27:54;;;;;;;13.05;4.40;;;11.10;82.30;;;;;;5092176;28;20388;-48
2023/04/11 12:30:21;;;;;;;24.50;4.05;;;11.30;80.30;;;;;;5091153;28;20090;-46
2023/04/11 12:32:48;;;;;;;13.60;3.08;;;10.90;79.50;;;;;;5093133;28;20036;-48
2023/04/11 12:35:18;;;;;;;10.50;3.67;;;10.50;80.30;;;;;;5065313;28;20034;-47
2023/04/11 12:37:45;;;;;;;13.52;2.92;;;10.20;79.60;;;;;;5078708;28;20017;-48
2023/04/11 12:40:12;;;;;;;13.93;3.20;;;10.00;79.40;;;;;;5084451;28;20016;-45
2023/04/11 12:42:39;;;;;;;11.93;3.60;;;9.90;79.60;;;;;;5086436;28;20039;-46
2023/04/11 12:45:07;;;;;;;15.98;3.92;;;9.90;80.20;;;;;;5086702;28;20032;-43
2023/04/11 12:47:35;;;;;;;12.57;2.63;;;10.00;80.90;;;;;;5088878;28;20112;-47
2023/04/11 12:50:03;;;;;;;11.27;4.07;;;9.90;79.30;;;;;;5074494;28;20403;-43
2023/04/11 12:52:33;;;;;;;14.90;3.35;;;10.00;78.80;;;;;;5085000;28;20462;-44
2023/04/11 12:55:03;;;;;;;11.10;3.45;;;10.20;79.00;;;;;;5092205;28;20039;-44
2023/04/11 12:57:31;;;;;;;11.38;2.88;;;10.20;78.50;;;;;;5081690;28;20039;-48
2023/04/11 12:59:58;;;;;;;12.10;2.65;;;10.40;79.10;;;;;;5087043;28;20066;-44
2023/04/11 13:02:25;;;;;;;12.32;4.60;;;10.30;77.30;;;;;;5053608;28;20391;-49